Coastal Messenger — CFL9726 — position and weather

sailwx.info

Track history (hours):
 
Tides and Currents Weather Stations Pressure Air Temp Water Temp Dewpoint Dewpoint Depression Visibility Wind Speed Wind Dir Waves Ship Positions

Coastal Messenger

Last reported at 2017-Jun-05 21:38 UTC. Time now 2017-Jun-24 19:05 UTC.
Position N 51°52' W 127°55'.
Warning: this ship's position is 18 days out of date.

Length 16 m.

Type: Pleasure craft. MMSI: 316016342.

Date/timePositionNaut miles runAvg speedWind from/ knotsBaromVisibWave heightAir tempDewpointWater temp
2017-Jun-05 21:38N 51°52' W 127°55'1 8.0
2017-Jun-05 21:30N 51°51' W 127°55'4 8.1
2017-Jun-05 21:00N 51°47' W 127°55'4 8.4
2017-Jun-05 20:30N 51°43' W 127°54'4 8.5
2017-Jun-05 20:00N 51°39' W 127°54'5 9.1
2017-Jun-05 19:30N 51°34' W 127°53'31 8.3
2017-Jun-05 15:48N 51°04' W 127°48'10 8.5
2017-Jun-05 14:40N 50°55' W 127°41'6 8.7
2017-Jun-05 14:00N 50°50' W 127°36'4 8.2
2017-Jun-05 13:30N 50°47' W 127°31'4 7.8
2017-Jun-05 13:00N 50°44' W 127°29'1 0.4
2017-Jun-05 11:08N 50°43' W 127°29'0 0.0
2017-Jun-05 10:57N 50°43' W 127°29'0 0.0
2017-Jun-05 09:51N 50°43' W 127°29'0 0.0
2017-Jun-05 08:51N 50°43' W 127°29'0 0.0
2017-Jun-05 08:21N 50°43' W 127°29'0 0.0
2017-Jun-05 07:51N 50°43' W 127°29'0 0.0
2017-Jun-05 07:21N 50°43' W 127°29'0 0.0
2017-Jun-05 06:57N 50°43' W 127°29'0 0.0
2017-Jun-05 06:21N 50°43' W 127°29'0 0.0
2017-Jun-05 05:57N 50°43' W 127°29'0 0.0
2017-Jun-05 05:27N 50°43' W 127°29'0 0.0
2017-Jun-05 04:57N 50°43' W 127°29'0 0.0
2017-Jun-05 04:21N 50°43' W 127°29'0 0.0
2017-Jun-05 03:57N 50°43' W 127°29'0 0.0
2017-Jun-05 03:27N 50°43' W 127°29'0 0.0
2017-Jun-05 02:57N 50°43' W 127°29'0 0.0
2017-Jun-05 02:27N 50°43' W 127°29'0 0.0
2017-Jun-05 01:57N 50°43' W 127°29'0 0.0
2017-Jun-05 01:27N 50°43' W 127°29'0 0.0
2017-Jun-05 00:03N 50°43' W 127°29'0 0.0
2017-Jun-04 23:57N 50°43' W 127°29'0 0.0
2017-Jun-04 23:27N 50°43' W 127°29'0 0.0
2017-Jun-04 22:57N 50°43' W 127°29'0 0.0
2017-Jun-04 22:21N 50°43' W 127°29'0 0.0
2017-Jun-04 21:57N 50°43' W 127°29'0 0.0
2017-Jun-04 21:27N 50°43' W 127°29'0 0.0
2017-Jun-04 20:57N 50°43' W 127°29'0 0.0
2017-Jun-04 20:27N 50°43' W 127°29'0 0.0
2017-Jun-04 19:57N 50°43' W 127°29'0 0.0
2017-Jun-04 19:27N 50°43' W 127°29'0 0.0
2017-Jun-04 16:21N 50°43' W 127°29'0 0.0
2017-Jun-04 11:45N 50°43' W 127°29'0 0.0
2017-Jun-04 10:09N 50°43' W 127°29'0 0.0
2017-Jun-04 09:57N 50°43' W 127°29'0 0.0
2017-Jun-04 09:27N 50°43' W 127°29'0 0.0
2017-Jun-04 08:51N 50°43' W 127°29'0 0.0
2017-Jun-04 08:15N 50°43' W 127°29'0 0.0
2017-Jun-04 07:57N 50°43' W 127°29'0 0.0
2017-Jun-04 07:27N 50°43' W 127°29'0 0.0
2017-Jun-04 06:57N 50°43' W 127°29'0 0.0
2017-Jun-04 06:21N 50°43' W 127°29'0 0.0
2017-Jun-04 05:57N 50°43' W 127°29'0 0.0
2017-Jun-04 05:27N 50°43' W 127°29'0 0.0
2017-Jun-04 03:57N 50°43' W 127°29'0 0.0
2017-Jun-04 00:21N 50°43' W 127°29'0 0.0
2017-Jun-03 22:51N 50°43' W 127°29'0 0.0
2017-Jun-03 22:21N 50°43' W 127°29'0 0.0
2017-Jun-03 21:57N 50°43' W 127°29'0 0.0
2017-Jun-03 21:27N 50°43' W 127°29'0 0.1
2017-Jun-03 14:53N 50°43' W 127°29'0 0.0
2017-Jun-03 06:03N 50°43' W 127°29'0 0.0
2017-Jun-03 05:39N 50°43' W 127°29'0 0.0
2017-Jun-03 03:51N 50°43' W 127°29'0 0.0
2017-Jun-03 03:21N 50°43' W 127°29'0 0.0
2017-Jun-03 02:57N 50°43' W 127°29'0 0.0
2017-Jun-02 15:39N 50°43' W 127°29'0 0.0
2017-Jun-02 15:27N 50°43' W 127°29'0 0.0
2017-Jun-02 13:45N 50°43' W 127°29'0 0.0
2017-Jun-02 13:15N 50°43' W 127°29'0 0.0
2017-Jun-02 12:57N 50°43' W 127°29'0 0.0
2017-Jun-02 12:27N 50°43' W 127°29'0 0.0
2017-Jun-02 11:15N 50°43' W 127°29'0 0.0
2017-Jun-02 10:45N 50°43' W 127°29'0 0.0
2017-Jun-02 10:27N 50°43' W 127°29'0 0.0
2017-Jun-02 09:57N 50°43' W 127°29'0 0.0
2017-Jun-02 09:15N 50°43' W 127°29'0 0.0
2017-Jun-02 08:57N 50°43' W 127°29'0 0.0
2017-Jun-02 08:21N 50°43' W 127°29'0 0.0
2017-Jun-02 07:57N 50°43' W 127°29'0 0.0
2017-Jun-02 07:15N 50°43' W 127°29'0 0.0
2017-Jun-02 06:57N 50°43' W 127°29'0 0.0
2017-Jun-02 06:27N 50°43' W 127°29'0 0.0
2017-Jun-02 05:57N 50°43' W 127°29'0 0.0
2017-Jun-02 05:27N 50°43' W 127°29'0 0.0
2017-Jun-02 04:57N 50°43' W 127°29'0 0.0
2017-Jun-02 04:27N 50°43' W 127°29'0 0.0
2017-Jun-02 03:57N 50°43' W 127°29'0 0.0
2017-Jun-02 03:27N 50°43' W 127°29'0 0.0
2017-Jun-02 02:57N 50°43' W 127°29'0 0.0
2017-Jun-02 02:27N 50°43' W 127°29'0 0.0
2017-Jun-02 01:57N 50°43' W 127°29'0 0.0
2017-Jun-02 01:27N 50°43' W 127°29'0 0.0
2017-Jun-02 00:57N 50°43' W 127°29'0 0.0
2017-Jun-02 00:27N 50°43' W 127°29'0 0.0
2017-Jun-01 23:57N 50°43' W 127°29'0 0.0
2017-Jun-01 23:27N 50°43' W 127°29'0 0.0
2017-Jun-01 22:51N 50°43' W 127°29'0 0.0
2017-Jun-01 22:27N 50°43' W 127°29'0 0.0
2017-Jun-01 21:51N 50°43' W 127°29'0 0.0
2017-Jun-01 21:27N 50°43' W 127°29'0 0.0
2017-Jun-01 20:15N 50°43' W 127°29'0 0.0
2017-Jun-01 19:57N 50°43' W 127°29'3 0.8
2017-Jun-01 16:19N 50°46' W 127°29'3 7.7
2017-Jun-01 15:58N 50°49' W 127°31'2 3.3
2017-Jun-01 15:30N 50°50' W 127°32'0 0.0
2017-Jun-01 15:00N 50°50' W 127°32'0 0.0
2017-Jun-01 14:00N 50°50' W 127°32'0 0.0
2017-Jun-01 13:30N 50°50' W 127°32'0 0.0
2017-Jun-01 13:00N 50°50' W 127°32'0 0.0
2017-Jun-01 12:30N 50°50' W 127°32'0 0.0
2017-Jun-01 12:00N 50°50' W 127°32'0 0.0
2017-Jun-01 11:24N 50°50' W 127°32'0 0.0
2017-Jun-01 10:54N 50°50' W 127°32'0 0.0
2017-Jun-01 10:30N 50°50' W 127°32'0 0.0
2017-Jun-01 10:00N 50°50' W 127°32'0 0.0
2017-Jun-01 09:30N 50°50' W 127°32'0 0.0
2017-Jun-01 09:00N 50°50' W 127°32'0 0.0
2017-Jun-01 08:30N 50°50' W 127°32'0 0.0
2017-Jun-01 08:00N 50°50' W 127°32'0 0.0
2017-Jun-01 07:30N 50°50' W 127°32'0 0.0
2017-Jun-01 07:00N 50°50' W 127°32'0 0.0
2017-Jun-01 06:31N 50°50' W 127°32'0 0.0
2017-Jun-01 05:54N 50°50' W 127°32'0 0.0
2017-Jun-01 05:30N 50°50' W 127°32'0 0.0
2017-Jun-01 05:01N 50°50' W 127°32'0 0.0
2017-Jun-01 04:31N 50°50' W 127°32'0 0.0
2017-Jun-01 04:01N 50°50' W 127°32'0 0.0
2017-Jun-01 03:31N 50°50' W 127°32'0 0.0
2017-Jun-01 03:01N 50°50' W 127°32'0 0.0
2017-Jun-01 02:31N 50°50' W 127°32'0 0.0
2017-Jun-01 02:01N 50°50' W 127°32'0 0.0
2017-Jun-01 01:31N 50°50' W 127°32'0 0.0
2017-Jun-01 01:01N 50°50' W 127°32'0 0.0
2017-Jun-01 00:25N 50°50' W 127°32'0 0.0
2017-May-31 23:55N 50°50' W 127°32'0 0.0
2017-May-31 23:25N 50°50' W 127°32'0 0.0
2017-May-31 22:55N 50°50' W 127°32'0 0.0
2017-May-31 22:25N 50°50' W 127°32'0 0.0
2017-May-31 21:55N 50°50' W 127°32'0 0.0
2017-May-31 21:25N 50°50' W 127°32'0 0.0
2017-May-31 20:55N 50°50' W 127°32'0 0.0
2017-May-31 20:19N 50°50' W 127°32'0 0.0
2017-May-31 19:49N 50°50' W 127°32'0 0.0
2017-May-31 19:25N 50°50' W 127°32'0 0.0
2017-May-31 18:55N 50°50' W 127°32'0 0.0
2017-May-31 18:25N 50°50' W 127°32'0 0.0
2017-May-31 17:55N 50°50' W 127°32'0 0.0
2017-May-31 17:25N 50°50' W 127°32'0 0.0
2017-May-31 16:55N 50°50' W 127°32'0 0.0
2017-May-31 16:22N 50°50' W 127°32'0 0.0
2017-May-31 15:52N 50°50' W 127°32'0 0.0
2017-May-31 15:28N 50°50' W 127°32'0 0.0
2017-May-31 14:52N 50°50' W 127°32'0 0.0
2017-May-31 13:55N 50°50' W 127°32'0 0.0
2017-May-31 13:25N 50°50' W 127°32'0 0.0
2017-May-31 12:49N 50°50' W 127°32'0 0.0
2017-May-31 12:25N 50°50' W 127°32'0 0.0
2017-May-31 11:52N 50°50' W 127°32'0 0.1
2017-May-31 11:28N 50°50' W 127°32'0 0.0
2017-May-31 10:58N 50°50' W 127°32'0 0.1
2017-May-31 10:28N 50°50' W 127°32'0 0.1
2017-May-31 09:46N 50°50' W 127°32'0 0.1
2017-May-31 09:28N 50°50' W 127°32'0 0.1
2017-May-31 08:58N 50°50' W 127°32'0 0.1
2017-May-31 08:28N 50°50' W 127°32'0 0.1
2017-May-31 07:58N 50°50' W 127°32'0 0.0
2017-May-31 07:22N 50°50' W 127°32'0 0.0
2017-May-31 06:58N 50°50' W 127°32'0 0.0
2017-May-31 06:22N 50°50' W 127°32'0 0.1
2017-May-31 05:58N 50°50' W 127°32'0 0.1
2017-May-31 05:16N 50°50' W 127°32'0 0.0
2017-May-31 04:58N 50°50' W 127°32'0 0.0
2017-May-31 04:28N 50°50' W 127°32'0 0.0
2017-May-31 03:52N 50°50' W 127°32'0 0.0
2017-May-31 03:28N 50°50' W 127°32'0 0.0
2017-May-31 02:58N 50°50' W 127°32'0 0.0
2017-May-30 23:46N 50°50' W 127°32'0 0.0
2017-May-30 23:28N 50°50' W 127°32'0 0.0
2017-May-30 22:58N 50°50' W 127°32'0 0.0
2017-May-30 22:28N 50°50' W 127°32'0 0.0
2017-May-30 21:58N 50°50' W 127°32'0 0.0
2017-May-30 21:22N 50°50' W 127°32'0 0.0
2017-May-30 20:58N 50°50' W 127°32'0 0.0
2017-May-30 20:16N 50°50' W 127°32'0 0.0
2017-May-30 19:58N 50°50' W 127°32'0 0.1
2017-May-30 19:28N 50°50' W 127°32'0 0.1
2017-May-30 18:58N 50°50' W 127°32'0 0.0
2017-May-30 18:28N 50°50' W 127°32'0 0.0
2017-May-30 17:58N 50°50' W 127°32'0 0.0
2017-May-30 17:28N 50°50' W 127°32'0 0.0
2017-May-30 16:52N 50°50' W 127°32'0 0.0
2017-May-30 16:28N 50°50' W 127°32'0 0.0
2017-May-30 15:58N 50°50' W 127°32'0 0.0
2017-May-30 15:28N 50°50' W 127°32'0 0.0
2017-May-30 14:58N 50°50' W 127°32'0 0.0
2017-May-30 13:58N 50°50' W 127°32'0 0.0
2017-May-30 13:28N 50°50' W 127°32'0 0.0
2017-May-30 12:58N 50°50' W 127°32'0 0.0
2017-May-30 12:28N 50°50' W 127°32'0 0.0
2017-May-30 10:40N 50°50' W 127°32'0 0.0
2017-May-30 10:28N 50°50' W 127°32'0 0.0
2017-May-30 09:58N 50°50' W 127°32'0 0.0
2017-May-30 09:28N 50°50' W 127°32'0 0.0
2017-May-30 08:58N 50°50' W 127°32'0 0.0
2017-May-30 08:22N 50°50' W 127°32'0 0.0
2017-May-30 07:58N 50°50' W 127°32'0 0.0
2017-May-30 07:28N 50°50' W 127°32'0 0.0
2017-May-30 06:58N 50°50' W 127°32'0 0.0
2017-May-30 06:28N 50°50' W 127°32'0 0.0
2017-May-30 05:58N 50°50' W 127°32'0 0.0
2017-May-30 05:28N 50°50' W 127°32'0 0.0
2017-May-30 04:58N 50°50' W 127°32'0 0.0
2017-May-30 04:28N 50°50' W 127°32'0 0.0
2017-May-30 03:58N 50°50' W 127°32'0 0.0
2017-May-30 03:28N 50°50' W 127°32'0 0.0
2017-May-30 02:58N 50°50' W 127°32'0 0.0
2017-May-30 02:28N 50°50' W 127°32'0 0.0
2017-May-30 01:58N 50°50' W 127°32'0 0.0
2017-May-30 01:28N 50°50' W 127°32'0 0.0
2017-May-30 00:58N 50°50' W 127°32'0 0.0
2017-May-30 00:30N 50°50' W 127°32'4 7.1
2017-May-30 00:00N 50°49' W 127°37'4 8.2
2017-May-29 23:30N 50°51' W 127°43'  
Track history (hours):
 
Tides and Currents Weather Stations Pressure Air Temp Water Temp Dewpoint Dewpoint Depression Visibility Wind Speed Wind Dir Waves Ship Positions

Coastal Messenger

Last reported at 2017-Jun-05 21:38 UTC. Time now 2017-Jun-24 19:05 UTC.
Position N 51°52' W 127°55'.
Warning: this ship's position is 18 days out of date.

Length 16 m.

Type: Pleasure craft. MMSI: 316016342.

Date/timePositionNaut miles runAvg speedWind from/ knotsBaromVisibWave heightAir tempDewpointWater temp
2017-Jun-05 21:38N 51°52' W 127°55'1 8.0
2017-Jun-05 21:30N 51°51' W 127°55'4 8.1
2017-Jun-05 21:00N 51°47' W 127°55'4 8.4
2017-Jun-05 20:30N 51°43' W 127°54'4 8.5
2017-Jun-05 20:00N 51°39' W 127°54'5 9.1
2017-Jun-05 19:30N 51°34' W 127°53'31 8.3
2017-Jun-05 15:48N 51°04' W 127°48'10 8.5
2017-Jun-05 14:40N 50°55' W 127°41'6 8.7
2017-Jun-05 14:00N 50°50' W 127°36'4 8.2
2017-Jun-05 13:30N 50°47' W 127°31'4 7.8
2017-Jun-05 13:00N 50°44' W 127°29'1 0.4
2017-Jun-05 11:08N 50°43' W 127°29'0 0.0
2017-Jun-05 10:57N 50°43' W 127°29'0 0.0
2017-Jun-05 09:51N 50°43' W 127°29'0 0.0
2017-Jun-05 08:51N 50°43' W 127°29'0 0.0
2017-Jun-05 08:21N 50°43' W 127°29'0 0.0
2017-Jun-05 07:51N 50°43' W 127°29'0 0.0
2017-Jun-05 07:21N 50°43' W 127°29'0 0.0
2017-Jun-05 06:57N 50°43' W 127°29'0 0.0
2017-Jun-05 06:21N 50°43' W 127°29'0 0.0
2017-Jun-05 05:57N 50°43' W 127°29'0 0.0
2017-Jun-05 05:27N 50°43' W 127°29'0 0.0
2017-Jun-05 04:57N 50°43' W 127°29'0 0.0
2017-Jun-05 04:21N 50°43' W 127°29'0 0.0
2017-Jun-05 03:57N 50°43' W 127°29'0 0.0
2017-Jun-05 03:27N 50°43' W 127°29'0 0.0
2017-Jun-05 02:57N 50°43' W 127°29'0 0.0
2017-Jun-05 02:27N 50°43' W 127°29'0 0.0
2017-Jun-05 01:57N 50°43' W 127°29'0 0.0
2017-Jun-05 01:27N 50°43' W 127°29'0 0.0
2017-Jun-05 00:03N 50°43' W 127°29'0 0.0
2017-Jun-04 23:57N 50°43' W 127°29'0 0.0
2017-Jun-04 23:27N 50°43' W 127°29'0 0.0
2017-Jun-04 22:57N 50°43' W 127°29'0 0.0
2017-Jun-04 22:21N 50°43' W 127°29'0 0.0
2017-Jun-04 21:57N 50°43' W 127°29'0 0.0
2017-Jun-04 21:27N 50°43' W 127°29'0 0.0
2017-Jun-04 20:57N 50°43' W 127°29'0 0.0
2017-Jun-04 20:27N 50°43' W 127°29'0 0.0
2017-Jun-04 19:57N 50°43' W 127°29'0 0.0
2017-Jun-04 19:27N 50°43' W 127°29'0 0.0
2017-Jun-04 16:21N 50°43' W 127°29'0 0.0
2017-Jun-04 11:45N 50°43' W 127°29'0 0.0
2017-Jun-04 10:09N 50°43' W 127°29'0 0.0
2017-Jun-04 09:57N 50°43' W 127°29'0 0.0
2017-Jun-04 09:27N 50°43' W 127°29'0 0.0
2017-Jun-04 08:51N 50°43' W 127°29'0 0.0
2017-Jun-04 08:15N 50°43' W 127°29'0 0.0
2017-Jun-04 07:57N 50°43' W 127°29'0 0.0
2017-Jun-04 07:27N 50°43' W 127°29'0 0.0
2017-Jun-04 06:57N 50°43' W 127°29'0 0.0
2017-Jun-04 06:21N 50°43' W 127°29'0 0.0
2017-Jun-04 05:57N 50°43' W 127°29'0 0.0
2017-Jun-04 05:27N 50°43' W 127°29'0 0.0
2017-Jun-04 03:57N 50°43' W 127°29'0 0.0
2017-Jun-04 00:21N 50°43' W 127°29'0 0.0
2017-Jun-03 22:51N 50°43' W 127°29'0 0.0
2017-Jun-03 22:21N 50°43' W 127°29'0 0.0
2017-Jun-03 21:57N 50°43' W 127°29'0 0.0
2017-Jun-03 21:27N 50°43' W 127°29'0 0.1
2017-Jun-03 14:53N 50°43' W 127°29'0 0.0
2017-Jun-03 06:03N 50°43' W 127°29'0 0.0
2017-Jun-03 05:39N 50°43' W 127°29'0 0.0
2017-Jun-03 03:51N 50°43' W 127°29'0 0.0
2017-Jun-03 03:21N 50°43' W 127°29'0 0.0
2017-Jun-03 02:57N 50°43' W 127°29'0 0.0
2017-Jun-02 15:39N 50°43' W 127°29'0 0.0
2017-Jun-02 15:27N 50°43' W 127°29'0 0.0
2017-Jun-02 13:45N 50°43' W 127°29'0 0.0
2017-Jun-02 13:15N 50°43' W 127°29'0 0.0
2017-Jun-02 12:57N 50°43' W 127°29'0 0.0
2017-Jun-02 12:27N 50°43' W 127°29'0 0.0
2017-Jun-02 11:15N 50°43' W 127°29'0 0.0
2017-Jun-02 10:45N 50°43' W 127°29'0 0.0
2017-Jun-02 10:27N 50°43' W 127°29'0 0.0
2017-Jun-02 09:57N 50°43' W 127°29'0 0.0
2017-Jun-02 09:15N 50°43' W 127°29'0 0.0
2017-Jun-02 08:57N 50°43' W 127°29'0 0.0
2017-Jun-02 08:21N 50°43' W 127°29'0 0.0
2017-Jun-02 07:57N 50°43' W 127°29'0 0.0
2017-Jun-02 07:15N 50°43' W 127°29'0 0.0
2017-Jun-02 06:57N 50°43' W 127°29'0 0.0
2017-Jun-02 06:27N 50°43' W 127°29'0 0.0
2017-Jun-02 05:57N 50°43' W 127°29'0 0.0
2017-Jun-02 05:27N 50°43' W 127°29'0 0.0
2017-Jun-02 04:57N 50°43' W 127°29'0 0.0
2017-Jun-02 04:27N 50°43' W 127°29'0 0.0
2017-Jun-02 03:57N 50°43' W 127°29'0 0.0
2017-Jun-02 03:27N 50°43' W 127°29'0 0.0
2017-Jun-02 02:57N 50°43' W 127°29'0 0.0
2017-Jun-02 02:27N 50°43' W 127°29'0 0.0
2017-Jun-02 01:57N 50°43' W 127°29'0 0.0
2017-Jun-02 01:27N 50°43' W 127°29'0 0.0
2017-Jun-02 00:57N 50°43' W 127°29'0 0.0
2017-Jun-02 00:27N 50°43' W 127°29'0 0.0
2017-Jun-01 23:57N 50°43' W 127°29'0 0.0
2017-Jun-01 23:27N 50°43' W 127°29'0 0.0
2017-Jun-01 22:51N 50°43' W 127°29'0 0.0
2017-Jun-01 22:27N 50°43' W 127°29'0 0.0
2017-Jun-01 21:51N 50°43' W 127°29'0 0.0
2017-Jun-01 21:27N 50°43' W 127°29'0 0.0
2017-Jun-01 20:15N 50°43' W 127°29'0 0.0
2017-Jun-01 19:57N 50°43' W 127°29'3 0.8
2017-Jun-01 16:19N 50°46' W 127°29'3 7.7
2017-Jun-01 15:58N 50°49' W 127°31'2 3.3
2017-Jun-01 15:30N 50°50' W 127°32'0 0.0
2017-Jun-01 15:00N 50°50' W 127°32'0 0.0
2017-Jun-01 14:00N 50°50' W 127°32'0 0.0
2017-Jun-01 13:30N 50°50' W 127°32'0 0.0
2017-Jun-01 13:00N 50°50' W 127°32'0 0.0
2017-Jun-01 12:30N 50°50' W 127°32'0 0.0
2017-Jun-01 12:00N 50°50' W 127°32'0 0.0
2017-Jun-01 11:24N 50°50' W 127°32'0 0.0
2017-Jun-01 10:54N 50°50' W 127°32'0 0.0
2017-Jun-01 10:30N 50°50' W 127°32'0 0.0
2017-Jun-01 10:00N 50°50' W 127°32'0 0.0
2017-Jun-01 09:30N 50°50' W 127°32'0 0.0
2017-Jun-01 09:00N 50°50' W 127°32'0 0.0
2017-Jun-01 08:30N 50°50' W 127°32'0 0.0
2017-Jun-01 08:00N 50°50' W 127°32'0 0.0
2017-Jun-01 07:30N 50°50' W 127°32'0 0.0
2017-Jun-01 07:00N 50°50' W 127°32'0 0.0
2017-Jun-01 06:31N 50°50' W 127°32'0 0.0
2017-Jun-01 05:54N 50°50' W 127°32'0 0.0
2017-Jun-01 05:30N 50°50' W 127°32'0 0.0
2017-Jun-01 05:01N 50°50' W 127°32'0 0.0
2017-Jun-01 04:31N 50°50' W 127°32'0 0.0
2017-Jun-01 04:01N 50°50' W 127°32'0 0.0
2017-Jun-01 03:31N 50°50' W 127°32'0 0.0
2017-Jun-01 03:01N 50°50' W 127°32'0 0.0
2017-Jun-01 02:31N 50°50' W 127°32'0 0.0
2017-Jun-01 02:01N 50°50' W 127°32'0 0.0
2017-Jun-01 01:31N 50°50' W 127°32'0 0.0
2017-Jun-01 01:01N 50°50' W 127°32'0 0.0
2017-Jun-01 00:25N 50°50' W 127°32'0 0.0
2017-May-31 23:55N 50°50' W 127°32'0 0.0
2017-May-31 23:25N 50°50' W 127°32'0 0.0
2017-May-31 22:55N 50°50' W 127°32'0 0.0
2017-May-31 22:25N 50°50' W 127°32'0 0.0
2017-May-31 21:55N 50°50' W 127°32'0 0.0
2017-May-31 21:25N 50°50' W 127°32'0 0.0
2017-May-31 20:55N 50°50' W 127°32'0 0.0
2017-May-31 20:19N 50°50' W 127°32'0 0.0
2017-May-31 19:49N 50°50' W 127°32'0 0.0
2017-May-31 19:25N 50°50' W 127°32'0 0.0
2017-May-31 18:55N 50°50' W 127°32'0 0.0
2017-May-31 18:25N 50°50' W 127°32'0 0.0
2017-May-31 17:55N 50°50' W 127°32'0 0.0
2017-May-31 17:25N 50°50' W 127°32'0 0.0
2017-May-31 16:55N 50°50' W 127°32'0 0.0
2017-May-31 16:22N 50°50' W 127°32'0 0.0
2017-May-31 15:52N 50°50' W 127°32'0 0.0
2017-May-31 15:28N 50°50' W 127°32'0 0.0
2017-May-31 14:52N 50°50' W 127°32'0 0.0
2017-May-31 13:55N 50°50' W 127°32'0 0.0
2017-May-31 13:25N 50°50' W 127°32'0 0.0
2017-May-31 12:49N 50°50' W 127°32'0 0.0
2017-May-31 12:25N 50°50' W 127°32'0 0.0
2017-May-31 11:52N 50°50' W 127°32'0 0.1
2017-May-31 11:28N 50°50' W 127°32'0 0.0
2017-May-31 10:58N 50°50' W 127°32'0 0.1
2017-May-31 10:28N 50°50' W 127°32'0 0.1
2017-May-31 09:46N 50°50' W 127°32'0 0.1
2017-May-31 09:28N 50°50' W 127°32'0 0.1
2017-May-31 08:58N 50°50' W 127°32'0 0.1
2017-May-31 08:28N 50°50' W 127°32'0 0.1
2017-May-31 07:58N 50°50' W 127°32'0 0.0
2017-May-31 07:22N 50°50' W 127°32'0 0.0
2017-May-31 06:58N 50°50' W 127°32'0 0.0
2017-May-31 06:22N 50°50' W 127°32'0 0.1
2017-May-31 05:58N 50°50' W 127°32'0 0.1
2017-May-31 05:16N 50°50' W 127°32'0 0.0
2017-May-31 04:58N 50°50' W 127°32'0 0.0
2017-May-31 04:28N 50°50' W 127°32'0 0.0
2017-May-31 03:52N 50°50' W 127°32'0 0.0
2017-May-31 03:28N 50°50' W 127°32'0 0.0
2017-May-31 02:58N 50°50' W 127°32'0 0.0
2017-May-30 23:46N 50°50' W 127°32'0 0.0
2017-May-30 23:28N 50°50' W 127°32'0 0.0
2017-May-30 22:58N 50°50' W 127°32'0 0.0
2017-May-30 22:28N 50°50' W 127°32'0 0.0
2017-May-30 21:58N 50°50' W 127°32'0 0.0
2017-May-30 21:22N 50°50' W 127°32'0 0.0
2017-May-30 20:58N 50°50' W 127°32'0 0.0
2017-May-30 20:16N 50°50' W 127°32'0 0.0
2017-May-30 19:58N 50°50' W 127°32'0 0.1
2017-May-30 19:28N 50°50' W 127°32'0 0.1
2017-May-30 18:58N 50°50' W 127°32'0 0.0
2017-May-30 18:28N 50°50' W 127°32'0 0.0
2017-May-30 17:58N 50°50' W 127°32'0 0.0
2017-May-30 17:28N 50°50' W 127°32'0 0.0
2017-May-30 16:52N 50°50' W 127°32'0 0.0
2017-May-30 16:28N 50°50' W 127°32'0 0.0
2017-May-30 15:58N 50°50' W 127°32'0 0.0
2017-May-30 15:28N 50°50' W 127°32'0 0.0
2017-May-30 14:58N 50°50' W 127°32'0 0.0
2017-May-30 13:58N 50°50' W 127°32'0 0.0
2017-May-30 13:28N 50°50' W 127°32'0 0.0
2017-May-30 12:58N 50°50' W 127°32'0 0.0
2017-May-30 12:28N 50°50' W 127°32'0 0.0
2017-May-30 10:40N 50°50' W 127°32'0 0.0
2017-May-30 10:28N 50°50' W 127°32'0 0.0
2017-May-30 09:58N 50°50' W 127°32'0 0.0
2017-May-30 09:28N 50°50' W 127°32'0 0.0
2017-May-30 08:58N 50°50' W 127°32'0 0.0
2017-May-30 08:22N 50°50' W 127°32'0 0.0
2017-May-30 07:58N 50°50' W 127°32'0 0.0
2017-May-30 07:28N 50°50' W 127°32'0 0.0
2017-May-30 06:58N 50°50' W 127°32'0 0.0
2017-May-30 06:28N 50°50' W 127°32'0 0.0
2017-May-30 05:58N 50°50' W 127°32'0 0.0
2017-May-30 05:28N 50°50' W 127°32'0 0.0
2017-May-30 04:58N 50°50' W 127°32'0 0.0
2017-May-30 04:28N 50°50' W 127°32'0 0.0
2017-May-30 03:58N 50°50' W 127°32'0 0.0
2017-May-30 03:28N 50°50' W 127°32'0 0.0
2017-May-30 02:58N 50°50' W 127°32'0 0.0
2017-May-30 02:28N 50°50' W 127°32'0 0.0
2017-May-30 01:58N 50°50' W 127°32'0 0.0
2017-May-30 01:28N 50°50' W 127°32'0 0.0
2017-May-30 00:58N 50°50' W 127°32'0 0.0
2017-May-30 00:30N 50°50' W 127°32'4 7.1
2017-May-30 00:00N 50°49' W 127°37'4 8.2
2017-May-29 23:30N 50°51' W 127°43'  

Dump ship's entire track history